Time;durP1;ratioP1;P1;durP2;ratioP2;P2;SDS_P1;SDS_P2;PMS_P1;PMS_P2;Temp;Humidity;BMP_temperature;BMP_pressure;BME280_temperature;BME280_humidity;BME280_pressure;Samples;Min_cycle;Max_cycle;Signal;HPM_P1;HPM_P2
2021/05/01 00:01:24;;;;;;;29.73;23.92;;;7.80;99.90;;;;;;5033196;28;20025;-80
2021/05/01 00:03:50;;;;;;;22.45;18.48;;;7.80;99.90;;;;;;5015417;28;20056;-80
2021/05/01 00:06:16;;;;;;;26.13;20.55;;;7.90;99.90;;;;;;5033372;28;20033;-80
2021/05/01 00:08:41;;;;;;;34.45;23.70;;;8.10;99.90;;;;;;5033398;28;20109;-80
2021/05/01 00:11:07;;;;;;;27.48;22.15;;;8.00;99.90;;;;;;5015400;28;20076;-80
2021/05/01 00:13:34;;;;;;;24.15;19.08;;;8.20;99.90;;;;;;5015220;28;20049;-80
2021/05/01 00:16:01;;;;;;;27.15;21.30;;;8.10;99.90;;;;;;5033033;28;20398;-80
2021/05/01 00:18:26;;;;;;;31.83;24.73;;;8.20;99.90;;;;;;5033237;28;20124;-80
2021/05/01 00:20:53;;;;;;;27.25;21.63;;;8.10;99.90;;;;;;5016200;28;20057;-80
2021/05/01 00:23:19;;;;;;;32.13;24.20;;;8.00;99.90;;;;;;5019141;28;20029;-80
2021/05/01 00:25:45;;;;;;;33.42;26.27;;;7.90;99.90;;;;;;5037153;28;20025;-80
2021/05/01 00:28:11;;;;;;;27.23;21.35;;;7.60;99.90;;;;;;5019098;28;20026;-80
2021/05/01 00:30:39;;;;;;;32.67;25.17;;;7.80;99.90;;;;;;5028368;28;20186;-80
2021/05/01 00:33:05;;;;;;;28.60;21.42;;;7.70;99.90;;;;;;5055394;28;20124;-80
2021/05/01 00:35:31;;;;;;;30.00;23.38;;;7.80;99.90;;;;;;5055364;28;20052;-80
2021/05/01 00:37:56;;;;;;;27.20;21.58;;;7.90;99.90;;;;;;5055326;28;20112;-80
2021/05/01 00:40:22;;;;;;;31.25;24.52;;;8.20;99.90;;;;;;5056582;28;20384;-80
2021/05/01 00:42:48;;;;;;;31.95;25.63;;;8.00;99.90;;;;;;5055303;28;20044;-80
2021/05/01 00:45:13;;;;;;;33.10;25.77;;;7.70;99.90;;;;;;5055222;28;20388;-80
2021/05/01 00:47:39;;;;;;;31.33;24.52;;;7.60;99.90;;;;;;5055176;28;20033;-80
2021/05/01 00:50:06;;;;;;;33.58;25.85;;;7.70;99.90;;;;;;5055153;28;20545;-80
2021/05/01 00:52:34;;;;;;;32.38;25.02;;;7.70;99.90;;;;;;5055036;28;20029;-80
2021/05/01 00:55:01;;;;;;;24.35;18.73;;;7.60;99.90;;;;;;5055065;28;20075;-80
2021/05/01 00:57:27;;;;;;;26.05;20.40;;;7.70;99.90;;;;;;5055055;28;20027;-80
2021/05/01 00:59:53;;;;;;;29.48;23.00;;;8.10;99.90;;;;;;5055001;28;20387;-80
2021/05/01 01:02:22;;;;;;;33.63;23.92;;;8.10;99.90;;;;;;5054929;28;20029;-80
2021/05/01 01:04:48;;;;;;;34.53;24.27;;;8.00;99.90;;;;;;5054904;28;20029;-80
2021/05/01 01:07:15;;;;;;;29.75;22.77;;;7.90;99.90;;;;;;5054874;28;20163;-80
2021/05/01 01:09:40;;;;;;;24.63;20.05;;;7.90;99.90;;;;;;5054841;28;20029;-80
2021/05/01 01:12:06;;;;;;;26.42;21.00;;;7.80;99.90;;;;;;5055872;28;20052;-80
2021/05/01 01:14:32;;;;;;;31.58;22.38;;;7.70;99.90;;;;;;5054729;28;20078;-80
2021/05/01 01:16:58;;;;;;;32.35;23.27;;;7.70;99.90;;;;;;5054636;28;20543;-80
2021/05/01 01:19:24;;;;;;;28.92;22.13;;;7.70;99.90;;;;;;5055903;28;20021;-80
2021/05/01 01:21:50;;;;;;;27.55;21.52;;;7.70;99.90;;;;;;5055828;28;20029;-80
2021/05/01 01:24:17;;;;;;;29.80;22.55;;;7.70;99.90;;;;;;5054522;28;20025;-80
2021/05/01 01:26:43;;;;;;;30.02;23.02;;;7.60;99.90;;;;;;5054428;28;20049;-80
2021/05/01 01:29:13;;;;;;;30.27;22.90;;;7.60;99.90;;;;;;5054448;28;20043;-80
2021/05/01 01:31:39;;;;;;;30.25;23.40;;;7.70;99.90;;;;;;5040614;28;20038;-80
2021/05/01 01:34:05;;;;;;;29.88;22.80;;;7.70;99.90;;;;;;5017496;28;20080;-80
2021/05/01 01:36:31;;;;;;;32.63;22.40;;;7.70;99.90;;;;;;5035573;28;20049;-80
2021/05/01 01:38:57;;;;;;;30.52;23.05;;;7.80;99.90;;;;;;5035514;28;20026;-80
2021/05/01 01:41:23;;;;;;;28.80;22.88;;;7.80;99.90;;;;;;5035782;28;20028;-80
2021/05/01 01:43:49;;;;;;;30.75;24.33;;;7.90;99.90;;;;;;5035754;28;20040;-80
2021/05/01 01:46:15;;;;;;;30.08;24.48;;;7.90;99.90;;;;;;5035448;28;20029;-80
2021/05/01 01:48:41;;;;;;;32.05;24.27;;;7.70;99.90;;;;;;5017616;28;20075;-80
2021/05/01 01:51:06;;;;;;;31.45;24.30;;;7.60;99.90;;;;;;5035368;28;20025;-80
2021/05/01 01:53:32;;;;;;;30.95;24.85;;;7.70;99.90;;;;;;5035525;28;20034;-80
2021/05/01 01:55:58;;;;;;;36.60;25.80;;;7.70;99.90;;;;;;5035247;28;20022;-80
2021/05/01 01:58:24;;;;;;;33.92;25.98;;;7.60;99.90;;;;;;5035235;28;20469;-80
2021/05/01 02:00:52;;;;;;;34.72;26.98;;;7.60;99.90;;;;;;5035181;28;20025;-81
2021/05/01 02:03:17;;;;;;;32.30;25.02;;;7.60;99.90;;;;;;5017376;28;20066;-81
2021/05/01 02:05:44;;;;;;;26.08;19.17;;;7.60;99.90;;;;;;5035040;28;20025;-80
2021/05/01 02:08:10;;;;;;;35.13;25.38;;;7.60;99.90;;;;;;5017275;28;20030;-80
2021/05/01 02:10:36;;;;;;;32.60;24.90;;;7.70;99.90;;;;;;5035237;28;20075;-81
2021/05/01 02:13:04;;;;;;;31.55;23.85;;;7.80;99.90;;;;;;5017118;28;20025;-80
2021/05/01 02:15:30;;;;;;;32.88;24.67;;;7.70;99.90;;;;;;5017135;28;20022;-81
2021/05/01 02:17:57;;;;;;;30.38;24.00;;;7.70;99.90;;;;;;5017322;28;20076;-81
2021/05/01 02:20:32;;;;;;;27.60;21.92;;;7.80;99.90;;;;;;5017026;28;20029;-81
2021/05/01 02:22:58;;;;;;;29.48;22.63;;;7.90;99.90;;;;;;5017107;28;20064;-81
2021/05/01 02:25:25;;;;;;;32.78;25.08;;;7.90;99.90;;;;;;5016971;28;20035;-80
2021/05/01 02:27:51;;;;;;;28.48;22.27;;;7.80;99.90;;;;;;5016862;28;20070;-81
2021/05/01 02:30:19;;;;;;;36.60;27.50;;;7.80;99.90;;;;;;5020496;28;20045;-80
2021/05/01 02:32:46;;;;;;;35.25;26.90;;;7.80;99.90;;;;;;5054756;28;20498;-80
2021/05/01 02:35:14;;;;;;;29.52;23.35;;;7.90;99.90;;;;;;5054513;28;20029;-81
2021/05/01 02:37:41;;;;;;;32.33;22.33;;;7.80;99.90;;;;;;5053104;28;20032;-80
2021/05/01 02:40:09;;;;;;;35.40;26.48;;;7.90;99.90;;;;;;5052988;28;20025;-80
2021/05/01 02:42:36;;;;;;;26.88;20.30;;;7.90;99.90;;;;;;5052950;28;20033;-81
2021/05/01 02:45:05;;;;;;;34.47;23.85;;;7.90;99.90;;;;;;5052890;28;20029;-81
2021/05/01 02:47:30;;;;;;;33.42;25.40;;;7.90;99.90;;;;;;5052950;28;20488;-81
2021/05/01 02:49:57;;;;;;;32.47;24.20;;;7.80;99.90;;;;;;5053147;28;20028;-81
2021/05/01 02:52:22;;;;;;;34.85;25.67;;;7.80;99.90;;;;;;5052790;28;20484;-81
2021/05/01 02:54:48;;;;;;;32.88;24.58;;;7.80;99.90;;;;;;5052830;28;20113;-80
2021/05/01 02:57:13;;;;;;;32.55;23.85;;;7.80;99.90;;;;;;5052735;28;20075;-81
2021/05/01 02:59:39;;;;;;;36.47;25.30;;;7.70;99.90;;;;;;5054512;28;20055;-80
2021/05/01 03:02:05;;;;;;;35.28;24.52;;;7.70;99.90;;;;;;5052614;28;20116;-80
2021/05/01 03:04:30;;;;;;;32.22;23.88;;;7.70;99.90;;;;;;5053896;28;20431;-80
2021/05/01 03:06:56;;;;;;;31.27;23.58;;;7.60;99.90;;;;;;5052580;28;20047;-81
2021/05/01 03:09:22;;;;;;;32.40;23.58;;;7.70;99.90;;;;;;5052512;28;20458;-80
2021/05/01 03:11:48;;;;;;;32.83;23.92;;;7.80;99.90;;;;;;5052494;28;20059;-81
2021/05/01 03:14:14;;;;;;;33.15;24.88;;;7.70;99.90;;;;;;5053762;28;20021;-80
2021/05/01 03:16:40;;;;;;;32.85;24.45;;;7.70;99.90;;;;;;5053697;28;20021;-80
2021/05/01 03:19:05;;;;;;;31.42;23.58;;;7.70;99.90;;;;;;5052296;28;20032;-81
2021/05/01 03:21:31;;;;;;;26.90;22.20;;;7.70;99.90;;;;;;5053882;28;20048;-81
2021/05/01 03:23:57;;;;;;;28.55;21.73;;;7.80;99.90;;;;;;5053820;28;20465;-81
2021/05/01 03:26:22;;;;;;;31.17;22.75;;;7.80;99.90;;;;;;5053552;28;20029;-80
2021/05/01 03:28:48;;;;;;;39.97;32.00;;;7.90;99.90;;;;;;5053530;28;20384;-80
2021/05/01 03:31:14;;;;;;;27.55;20.70;;;7.90;99.90;;;;;;5052027;28;20047;-80
2021/05/01 03:33:40;;;;;;;23.58;18.15;;;8.00;99.90;;;;;;5053658;28;20052;-80
2021/05/01 03:36:06;;;;;;;27.45;20.77;;;7.90;99.90;;;;;;5053393;28;20469;-80
2021/05/01 03:38:32;;;;;;;22.77;17.77;;;7.80;99.90;;;;;;5053320;28;20419;-80
2021/05/01 03:40:59;;;;;;;26.45;20.70;;;7.90;99.90;;;;;;5052093;28;20056;-80
2021/05/01 03:43:25;;;;;;;31.38;20.85;;;8.00;99.90;;;;;;5052055;28;20040;-80
2021/05/01 03:45:50;;;;;;;23.55;18.60;;;8.00;99.90;;;;;;5051984;28;20508;-80
2021/05/01 03:48:16;;;;;;;27.83;21.45;;;7.90;99.90;;;;;;5053499;28;20033;-80
2021/05/01 03:50:42;;;;;;;26.73;18.67;;;8.10;99.90;;;;;;5051931;28;20079;-80
2021/05/01 03:53:08;;;;;;;26.80;21.20;;;8.10;99.90;;;;;;5051802;28;20115;-80
2021/05/01 03:55:33;;;;;;;28.33;21.15;;;8.20;99.90;;;;;;5052952;28;20489;-80
2021/05/01 03:57:59;;;;;;;29.13;21.20;;;8.00;99.90;;;;;;5053420;28;20472;-80
2021/05/01 04:00:25;;;;;;;30.13;21.17;;;7.90;99.90;;;;;;5053115;28;20025;-80
2021/05/01 04:02:51;;;;;;;21.83;17.83;;;7.80;99.90;;;;;;5051830;28;20090;-80
2021/05/01 04:05:17;;;;;;;28.92;21.30;;;8.00;99.90;;;;;;5051813;28;20033;-81
2021/05/01 04:07:44;;;;;;;22.85;18.05;;;8.20;99.90;;;;;;5035363;28;20527;-80
2021/05/01 04:10:10;;;;;;;27.35;20.63;;;8.40;99.90;;;;;;5053285;28;20079;-81
2021/05/01 04:12:36;;;;;;;30.38;21.90;;;8.20;99.90;;;;;;5051662;28;20416;-80
2021/05/01 04:15:02;;;;;;;24.65;19.55;;;8.00;99.90;;;;;;5053215;28;20024;-81
2021/05/01 04:17:27;;;;;;;31.23;21.08;;;8.00;99.90;;;;;;5053525;28;20090;-81
2021/05/01 04:19:53;;;;;;;25.65;19.10;;;7.90;99.90;;;;;;5051643;28;20108;-81
2021/05/01 04:22:20;;;;;;;27.60;20.13;;;7.90;99.90;;;;;;5051651;28;20033;-81
2021/05/01 04:24:46;;;;;;;28.42;21.13;;;8.10;99.90;;;;;;5053170;28;20086;-80
2021/05/01 04:27:11;;;;;;;30.80;22.75;;;8.00;99.90;;;;;;5051623;28;20025;-81
2021/05/01 04:29:37;;;;;;;30.33;20.58;;;7.90;99.90;;;;;;5051576;28;20040;-80
2021/05/01 04:32:03;;;;;;;30.17;23.35;;;7.90;99.90;;;;;;5051303;28;20045;-81
2021/05/01 04:34:29;;;;;;;27.05;21.50;;;7.90;99.90;;;;;;5051519;28;20021;-81
2021/05/01 04:36:54;;;;;;;29.58;21.55;;;7.80;99.90;;;;;;5051535;28;20025;-81
2021/05/01 04:39:20;;;;;;;29.02;20.83;;;7.80;99.90;;;;;;5051430;28;20017;-81
2021/05/01 04:41:47;;;;;;;26.70;20.55;;;7.90;99.90;;;;;;5052754;28;20017;-81
2021/05/01 04:44:12;;;;;;;30.50;23.08;;;7.80;99.90;;;;;;5052763;28;20025;-81
2021/05/01 04:46:38;;;;;;;27.70;20.45;;;7.70;99.90;;;;;;5051464;28;20025;-81
2021/05/01 04:49:07;;;;;;;30.13;20.70;;;7.80;99.90;;;;;;5051404;28;20033;-81
2021/05/01 04:51:34;;;;;;;34.53;23.30;;;7.80;99.90;;;;;;5052613;28;20028;-81
2021/05/01 04:54:02;;;;;;;31.08;21.45;;;7.80;99.90;;;;;;5052583;28;20025;-81
2021/05/01 04:56:27;;;;;;;30.98;24.10;;;7.90;99.90;;;;;;5052653;28;20431;-81
2021/05/01 04:58:53;;;;;;;30.92;24.70;;;8.00;99.90;;;;;;5052862;28;20094;-81
2021/05/01 05:01:19;;;;;;;25.17;18.73;;;7.90;99.90;;;;;;5051305;28;20025;-81
2021/05/01 05:03:44;;;;;;;26.58;20.50;;;8.00;99.90;;;;;;5051279;28;20043;-81
2021/05/01 05:06:10;;;;;;;25.08;18.88;;;8.00;99.90;;;;;;5052467;28;20040;-81
2021/05/01 05:08:36;;;;;;;26.50;20.98;;;8.10;99.90;;;;;;5054993;28;20532;-81
2021/05/01 05:11:02;;;;;;;32.92;23.98;;;8.00;99.90;;;;;;5054766;28;20029;-81
2021/05/01 05:13:28;;;;;;;32.25;22.98;;;8.00;99.90;;;;;;5054696;28;20075;-81
2021/05/01 05:15:53;;;;;;;29.38;22.00;;;7.90;99.90;;;;;;5056269;28;20101;-81
2021/05/01 05:18:20;;;;;;;28.50;20.90;;;7.80;99.90;;;;;;5054645;28;20599;-81
2021/05/01 05:20:46;;;;;;;32.22;23.60;;;7.80;99.90;;;;;;5055845;28;20384;-81
2021/05/01 05:23:12;;;;;;;28.45;22.02;;;7.80;99.90;;;;;;5054524;28;20029;-81
2021/05/01 05:25:38;;;;;;;28.92;21.65;;;7.80;99.90;;;;;;5054526;28;20424;-81
2021/05/01 05:28:04;;;;;;;30.95;22.77;;;7.90;99.90;;;;;;5055722;28;20082;-81
2021/05/01 05:30:30;;;;;;;29.42;20.92;;;7.90;99.90;;;;;;5054264;28;20033;-81
2021/05/01 05:32:56;;;;;;;26.77;21.52;;;8.00;99.90;;;;;;5054312;28;20447;-81
2021/05/01 05:35:23;;;;;;;27.92;21.60;;;8.00;99.90;;;;;;5054355;28;20071;-81
2021/05/01 05:37:49;;;;;;;28.67;21.77;;;7.90;99.90;;;;;;5054207;28;20021;-81
2021/05/01 05:40:15;;;;;;;28.65;22.85;;;8.00;99.90;;;;;;5054260;28;20025;-81
2021/05/01 05:42:42;;;;;;;27.23;20.50;;;8.00;99.90;;;;;;5054125;28;20425;-81
2021/05/01 05:45:09;;;;;;;32.85;22.33;;;8.00;99.90;;;;;;5054109;28;20396;-81
2021/05/01 05:47:35;;;;;;;33.38;24.63;;;8.10;99.90;;;;;;5053999;28;20032;-81
2021/05/01 05:50:01;;;;;;;29.25;19.83;;;8.20;99.90;;;;;;5053976;28;20029;-81
2021/05/01 05:52:26;;;;;;;28.25;20.27;;;8.20;99.90;;;;;;5053929;28;20040;-80
2021/05/01 05:54:52;;;;;;;25.17;17.90;;;8.30;99.90;;;;;;5053859;28;20025;-80
2021/05/01 05:57:18;;;;;;;27.55;21.83;;;8.40;99.90;;;;;;5053862;28;20119;-81
2021/05/01 05:59:44;;;;;;;27.67;21.15;;;8.30;99.90;;;;;;5055095;28;20048;-81
2021/05/01 06:02:15;;;;;;;21.80;16.65;;;8.20;99.90;;;;;;5053785;28;20459;-81
2021/05/01 06:04:49;;;;;;;25.25;19.50;;;8.30;99.90;;;;;;5055556;28;20465;-81
2021/05/01 06:07:24;;;;;;;26.70;21.13;;;8.40;99.90;;;;;;5053808;28;20048;-81
2021/05/01 06:09:51;;;;;;;29.67;21.83;;;8.40;99.90;;;;;;5054960;28;20017;-81
2021/05/01 06:12:19;;;;;;;32.08;23.30;;;8.30;99.90;;;;;;5055074;28;20025;-81
2021/05/01 06:14:46;;;;;;;29.63;20.17;;;8.30;99.90;;;;;;5055054;28;20105;-81
2021/05/01 06:17:13;;;;;;;27.48;20.42;;;8.10;99.90;;;;;;5053543;28;20112;-81
2021/05/01 06:19:39;;;;;;;31.95;23.45;;;8.20;99.90;;;;;;5053021;28;20109;-81
2021/05/01 06:22:05;;;;;;;26.52;20.38;;;8.10;99.90;;;;;;5053433;28;20055;-80
2021/05/01 06:24:31;;;;;;;25.55;20.23;;;8.10;99.90;;;;;;5054588;28;20453;-81
2021/05/01 06:26:57;;;;;;;32.22;24.15;;;8.20;99.90;;;;;;5054596;28;20017;-80
2021/05/01 06:29:24;;;;;;;31.50;23.38;;;8.20;99.90;;;;;;5053399;28;20542;-81
2021/05/01 06:31:51;;;;;;;34.38;25.05;;;8.20;99.90;;;;;;5052975;28;20094;-81
2021/05/01 06:34:16;;;;;;;29.00;21.25;;;8.20;99.90;;;;;;5053075;28;20029;-81
2021/05/01 06:36:42;;;;;;;36.22;24.17;;;8.30;99.90;;;;;;5054419;28;20060;-81
2021/05/01 06:39:09;;;;;;;30.70;21.73;;;8.20;99.90;;;;;;5052998;28;20025;-81
2021/05/01 06:41:42;;;;;;;32.97;23.67;;;8.10;99.90;;;;;;5054374;28;20028;-81
2021/05/01 06:44:14;;;;;;;30.98;21.63;;;8.20;99.90;;;;;;5053040;28;20089;-81
2021/05/01 06:46:42;;;;;;;35.47;23.45;;;8.20;99.90;;;;;;5052982;28;20076;-81
2021/05/01 06:49:26;;;;;;;27.95;21.13;;;8.10;99.90;;;;;;5052866;28;20455;-82
2021/05/01 06:51:54;;;;;;;28.02;20.75;;;8.20;99.90;;;;;;5052929;28;20044;-81
2021/05/01 06:54:23;;;;;;;35.33;25.38;;;8.30;99.90;;;;;;5052692;28;20475;-81
2021/05/01 06:56:49;;;;;;;28.65;21.98;;;8.30;99.90;;;;;;5054311;28;20071;-81
2021/05/01 06:59:17;;;;;;;31.45;22.55;;;8.40;99.90;;;;;;5053936;28;20025;-81
2021/05/01 07:01:45;;;;;;;35.65;23.63;;;8.40;99.90;;;;;;5052705;28;20017;-81
2021/05/01 07:04:12;;;;;;;30.15;22.55;;;8.40;99.90;;;;;;5053876;28;20025;-81
2021/05/01 07:06:40;;;;;;;29.48;22.13;;;8.40;99.90;;;;;;5052561;28;20033;-81
2021/05/01 07:09:05;;;;;;;26.92;20.73;;;8.40;99.90;;;;;;5053801;28;20488;-81
2021/05/01 07:11:32;;;;;;;35.90;26.08;;;8.40;99.90;;;;;;5052457;28;20032;-81
2021/05/01 07:13:59;;;;;;;31.45;24.25;;;8.40;99.90;;;;;;5053736;28;20539;-81
2021/05/01 07:16:27;;;;;;;33.50;24.58;;;8.40;99.90;;;;;;5052381;28;20021;-81
2021/05/01 07:18:59;;;;;;;33.20;24.33;;;8.40;99.90;;;;;;5053637;28;20045;-81
2021/05/01 07:21:25;;;;;;;31.25;23.63;;;8.50;99.90;;;;;;5052415;28;20044;-81
2021/05/01 07:23:51;;;;;;;34.22;24.73;;;8.50;99.90;;;;;;5053603;28;20021;-81
2021/05/01 07:26:21;;;;;;;37.65;27.75;;;8.60;99.90;;;;;;5052246;28;20029;-82
2021/05/01 07:28:50;;;;;;;33.63;25.67;;;8.50;99.90;;;;;;5053523;28;20032;-82
2021/05/01 07:31:21;;;;;;;33.92;25.15;;;8.60;99.90;;;;;;5051265;28;20045;-82
2021/05/01 07:33:51;;;;;;;31.42;23.20;;;8.70;99.90;;;;;;5052063;28;20127;-82
2021/05/01 07:36:27;;;;;;;37.17;26.48;;;8.80;99.90;;;;;;5052121;28;20025;-81
2021/05/01 07:38:57;;;;;;;29.17;21.55;;;8.70;99.90;;;;;;5053270;28;20094;-81
2021/05/01 07:41:25;;;;;;;28.92;22.77;;;8.60;99.90;;;;;;5051997;28;20051;-82
2021/05/01 07:43:52;;;;;;;32.58;25.15;;;8.60;99.90;;;;;;5053318;28;20021;-82
2021/05/01 07:46:22;;;;;;;35.13;25.58;;;8.60;99.90;;;;;;5051975;28;20035;-81
2021/05/01 07:48:49;;;;;;;31.38;22.95;;;8.70;99.90;;;;;;5053235;28;20498;-82
2021/05/01 07:51:16;;;;;;;39.78;28.58;;;8.80;99.90;;;;;;5053199;28;20504;-81
2021/05/01 07:53:43;;;;;;;36.63;26.65;;;8.70;99.90;;;;;;5053328;28;20025;-82
2021/05/01 07:56:08;;;;;;;33.90;25.05;;;8.80;99.90;;;;;;5051738;28;20021;-82
2021/05/01 07:58:34;;;;;;;38.40;26.33;;;8.70;99.90;;;;;;5053125;28;20028;-81
2021/05/01 08:01:00;;;;;;;39.47;29.92;;;9.00;99.90;;;;;;5051853;28;20469;-82
2021/05/01 08:03:26;;;;;;;40.70;26.25;;;8.90;99.90;;;;;;5051726;28;20028;-82
2021/05/01 08:05:51;;;;;;;37.25;27.52;;;8.90;99.90;;;;;;5052004;28;20445;-81
2021/05/01 08:08:17;;;;;;;35.67;26.83;;;8.90;99.90;;;;;;5051955;28;20029;-81
2021/05/01 08:10:44;;;;;;;36.33;26.98;;;8.70;99.90;;;;;;5053041;28;20021;-81
2021/05/01 08:13:10;;;;;;;33.50;25.33;;;8.60;99.90;;;;;;5052913;28;20056;-81
2021/05/01 08:15:38;;;;;;;31.98;24.85;;;8.70;99.90;;;;;;5051688;28;20025;-81
2021/05/01 08:18:08;;;;;;;32.30;24.50;;;8.70;99.90;;;;;;5052915;28;20043;-81
2021/05/01 08:20:35;;;;;;;38.08;26.23;;;8.60;99.90;;;;;;5051673;28;20056;-82
2021/05/01 08:23:01;;;;;;;40.35;27.77;;;8.60;99.90;;;;;;5053427;28;20083;-82
2021/05/01 08:25:26;;;;;;;34.83;24.77;;;8.60;99.90;;;;;;5051597;28;20029;-81
2021/05/01 08:27:53;;;;;;;31.15;23.63;;;8.60;99.90;;;;;;5052928;28;20392;-81
2021/05/01 08:30:19;;;;;;;36.63;27.08;;;8.60;99.90;;;;;;5049655;28;20036;-82
2021/05/01 08:32:46;;;;;;;31.67;25.17;;;8.60;99.90;;;;;;5015084;28;20396;-81
2021/05/01 08:35:14;;;;;;;41.88;28.73;;;8.70;99.90;;;;;;5015104;28;20030;-81
2021/05/01 08:37:40;;;;;;;42.92;29.02;;;8.60;99.90;;;;;;5033061;28;20025;-81
2021/05/01 08:40:08;;;;;;;41.25;29.73;;;8.50;99.90;;;;;;5032673;28;20427;-81
2021/05/01 08:42:33;;;;;;;42.00;30.67;;;8.60;99.90;;;;;;5016941;28;20026;-81
2021/05/01 08:45:06;;;;;;;36.25;27.67;;;8.50;99.90;;;;;;5036544;28;20032;-80
2021/05/01 08:47:36;;;;;;;37.03;26.95;;;8.70;99.90;;;;;;5036502;28;20029;-82
2021/05/01 08:50:07;;;;;;;41.05;27.63;;;8.80;99.90;;;;;;5018655;28;20025;-81
2021/05/01 08:52:34;;;;;;;31.88;23.92;;;8.90;99.90;;;;;;5002450;28;20026;-81
2021/05/01 08:55:00;;;;;;;44.85;31.90;;;9.10;99.90;;;;;;5036375;28;20029;-81
2021/05/01 08:57:32;;;;;;;30.70;23.17;;;9.20;99.90;;;;;;5018571;28;20025;-81
2021/05/01 08:59:58;;;;;;;36.75;26.77;;;9.20;99.90;;;;;;5018566;28;20476;-82
2021/05/01 09:02:27;;;;;;;38.65;28.30;;;9.30;99.90;;;;;;5018522;28;20028;-82
2021/05/01 09:04:54;;;;;;;37.25;27.65;;;9.20;99.90;;;;;;5018462;28;20034;-82
2021/05/01 09:07:21;;;;;;;33.83;25.98;;;9.20;99.90;;;;;;5018352;28;20079;-82
2021/05/01 09:09:58;;;;;;;39.30;29.20;;;9.10;99.90;;;;;;5018341;28;20488;-82
2021/05/01 09:12:37;;;;;;;34.95;26.13;;;9.00;99.90;;;;;;5018286;28;20374;-81
2021/05/01 09:15:05;;;;;;;39.25;26.67;;;9.10;99.90;;;;;;5018290;28;20032;-81
2021/05/01 09:17:32;;;;;;;35.30;25.25;;;9.20;99.90;;;;;;5036209;28;20021;-82
2021/05/01 09:20:11;;;;;;;38.35;28.35;;;9.20;99.90;;;;;;5018198;28;20032;-82
2021/05/01 09:22:51;;;;;;;35.67;27.17;;;9.20;99.90;;;;;;5018073;28;20075;-82
2021/05/01 09:25:18;;;;;;;36.45;27.35;;;9.20;99.90;;;;;;5036071;28;20026;-82
2021/05/01 09:27:58;;;;;;;35.38;25.60;;;9.20;99.90;;;;;;5017996;28;20079;-81
2021/05/01 09:30:27;;;;;;;36.70;27.70;;;9.20;99.90;;;;;;5035858;28;20029;-81
2021/05/01 09:33:12;;;;;;;41.05;30.70;;;9.30;99.90;;;;;;5017660;28;20034;-81
2021/05/01 09:35:38;;;;;;;38.80;28.23;;;9.30;99.90;;;;;;5017776;28;20025;-82
2021/05/01 09:38:05;;;;;;;39.67;29.33;;;9.20;99.90;;;;;;5017729;28;20053;-82
2021/05/01 09:40:31;;;;;;;33.35;26.38;;;9.40;99.90;;;;;;5017746;28;20025;-81
2021/05/01 09:43:17;;;;;;;37.33;28.60;;;9.30;99.90;;;;;;5017801;28;20029;-81
2021/05/01 09:45:43;;;;;;;37.65;26.98;;;9.30;99.90;;;;;;5035670;28;20036;-82
2021/05/01 09:48:18;;;;;;;32.92;24.73;;;9.30;99.90;;;;;;5017635;28;20084;-81
2021/05/01 09:50:46;;;;;;;35.50;25.75;;;9.30;99.90;;;;;;5035471;28;20036;-81
2021/05/01 09:53:17;;;;;;;37.70;27.88;;;9.30;99.90;;;;;;5016815;28;20037;-80
2021/05/01 09:55:54;;;;;;;38.75;27.23;;;9.30;99.90;;;;;;5017539;28;20021;-81
2021/05/01 09:58:25;;;;;;;33.22;24.15;;;9.40;99.90;;;;;;5035553;28;20022;-82
2021/05/01 10:00:52;;;;;;;33.65;26.45;;;9.50;99.90;;;;;;5018204;28;20133;-82
2021/05/01 10:03:24;;;;;;;33.83;23.83;;;9.50;99.90;;;;;;5017307;28;20035;-81
2021/05/01 10:05:52;;;;;;;32.22;23.67;;;9.50;99.90;;;;;;5035090;28;20520;-80
2021/05/01 10:08:21;;;;;;;27.27;21.15;;;9.50;99.90;;;;;;5017298;28;20567;-80
2021/05/01 10:10:49;;;;;;;25.92;20.63;;;9.50;99.90;;;;;;5017335;28;20076;-80
2021/05/01 10:13:15;;;;;;;29.17;21.15;;;9.60;99.90;;;;;;5017172;28;20435;-82
2021/05/01 10:15:43;;;;;;;29.33;22.15;;;9.90;99.90;;;;;;5017202;28;20409;-81
2021/05/01 10:18:17;;;;;;;24.33;19.67;;;10.00;99.90;;;;;;5017163;28;20052;-81
2021/05/01 10:20:46;;;;;;;;;;;10.10;99.90;;;;;;5035348;28;20017;-81
2021/05/01 10:23:12;;;;;;;26.95;20.02;;;10.20;99.90;;;;;;5034845;28;19912;-82
2021/05/01 10:25:38;;;;;;;28.05;19.15;;;10.20;99.90;;;;;;5034759;28;20048;-82
2021/05/01 10:28:10;;;;;;;30.92;22.33;;;10.40;99.90;;;;;;5016951;28;20106;-81
2021/05/01 10:30:46;;;;;;;34.13;23.33;;;10.20;99.90;;;;;;5021530;28;20037;-81
2021/05/01 10:33:39;;;;;;;31.10;22.00;;;10.10;99.90;;;;;;5053261;28;20029;-82
2021/05/01 10:36:10;;;;;;;26.10;20.33;;;10.20;99.90;;;;;;5053254;28;20417;-82
2021/05/01 10:38:38;;;;;;;28.25;21.58;;;10.10;99.90;;;;;;5054543;28;20025;-81
2021/05/01 10:41:07;;;;;;;29.17;22.73;;;10.00;99.90;;;;;;5053105;28;20503;-82
2021/05/01 10:43:37;;;;;;;30.40;22.08;;;10.00;99.90;;;;;;5053139;28;20033;-81
2021/05/01 10:46:11;;;;;;;25.13;19.27;;;10.10;99.90;;;;;;5053056;28;20159;-82
2021/05/01 10:48:51;;;;;;;30.77;21.30;;;10.10;99.90;;;;;;5053110;28;20029;-82
2021/05/01 10:51:22;;;;;;;25.10;19.83;;;10.40;99.90;;;;;;5052902;28;20029;-82
2021/05/01 10:54:05;;;;;;;27.67;19.80;;;10.60;99.90;;;;;;5052961;28;20035;-81
2021/05/01 10:56:31;;;;;;;31.60;22.20;;;10.70;99.90;;;;;;5054171;28;20043;-81
2021/05/01 10:58:57;;;;;;;33.78;22.08;;;10.70;99.90;;;;;;5052664;28;20127;-81
2021/05/01 11:01:37;;;;;;;31.38;23.00;;;10.50;99.90;;;;;;5052833;28;20503;-81
2021/05/01 11:04:06;;;;;;;24.17;18.88;;;10.40;99.90;;;;;;5052711;28;20481;-82
2021/05/01 11:06:51;;;;;;;28.73;21.05;;;10.50;99.90;;;;;;5053822;28;20025;-81
2021/05/01 11:09:38;;;;;;;30.00;22.98;;;11.00;99.90;;;;;;5052883;28;20025;-82
2021/05/01 11:12:07;;;;;;;29.38;21.33;;;11.20;99.90;;;;;;5053892;28;20074;-81
2021/05/01 11:14:39;;;;;;;25.77;20.35;;;10.80;99.90;;;;;;5053761;28;20059;-81
2021/05/01 11:17:23;;;;;;;32.67;22.85;;;10.40;99.90;;;;;;5052486;28;20029;-81
2021/05/01 11:19:56;;;;;;;33.55;23.05;;;10.40;99.90;;;;;;5052650;28;20043;-81
2021/05/01 11:22:26;;;;;;;25.55;20.15;;;10.40;99.90;;;;;;5052439;28;20481;-81
2021/05/01 11:24:53;;;;;;;24.08;19.17;;;10.50;99.90;;;;;;5052340;28;20393;-81
2021/05/01 11:27:19;;;;;;;26.70;19.25;;;10.60;99.90;;;;;;5052331;28;20021;-82
2021/05/01 11:29:46;;;;;;;29.25;20.10;;;10.80;99.90;;;;;;5052153;28;20476;-82
2021/05/01 11:32:12;;;;;;;27.73;18.88;;;10.70;99.90;;;;;;5051910;28;20045;-82
2021/05/01 11:34:39;;;;;;;25.85;19.10;;;10.80;99.90;;;;;;5053636;28;20052;-81
2021/05/01 11:37:09;;;;;;;27.10;18.88;;;10.80;99.90;;;;;;5053372;28;20465;-82
2021/05/01 11:39:40;;;;;;;26.13;19.70;;;10.80;99.90;;;;;;5051978;28;20028;-82
2021/05/01 11:42:06;;;;;;;28.88;22.00;;;10.90;99.90;;;;;;5053580;28;20426;-82
2021/05/01 11:44:33;;;;;;;22.70;17.67;;;10.90;99.90;;;;;;5052014;28;20112;-82
2021/05/01 11:47:13;;;;;;;22.33;18.38;;;11.00;99.90;;;;;;5053241;28;20052;-81
2021/05/01 11:49:39;;;;;;;29.83;20.73;;;10.80;99.90;;;;;;5053228;28;20427;-81
2021/05/01 11:52:15;;;;;;;25.55;18.70;;;10.80;99.90;;;;;;5052749;28;20100;-81
2021/05/01 11:54:47;;;;;;;26.05;19.63;;;10.70;99.90;;;;;;5053199;28;20063;-81
2021/05/01 11:57:24;;;;;;;23.40;19.08;;;10.70;99.90;;;;;;5051903;28;20028;-82
2021/05/01 11:59:52;;;;;;;24.45;19.52;;;10.60;99.90;;;;;;5051855;28;20108;-81
2021/05/01 12:02:35;;;;;;;25.75;19.95;;;10.70;99.90;;;;;;5052127;28;20017;-81
2021/05/01 12:05:10;;;;;;;24.85;18.73;;;10.70;99.90;;;;;;5053156;28;20021;-81
2021/05/01 12:07:45;;;;;;;25.85;19.50;;;10.80;99.90;;;;;;5053022;28;20025;-81
2021/05/01 12:10:20;;;;;;;26.42;19.00;;;10.80;99.90;;;;;;5051895;28;20086;-81
2021/05/01 12:12:58;;;;;;;26.80;21.95;;;10.70;99.90;;;;;;5051687;28;20033;-81
2021/05/01 12:15:34;;;;;;;22.17;15.93;;;10.80;99.90;;;;;;5051740;28;20388;-81
2021/05/01 12:18:02;;;;;;;26.83;19.98;;;10.90;99.90;;;;;;5054526;28;20028;-81
2021/05/01 12:20:29;;;;;;;30.48;22.25;;;10.70;99.90;;;;;;5055756;28;20055;-81
2021/05/01 12:23:11;;;;;;;24.27;18.58;;;10.70;99.90;;;;;;5057017;28;20472;-81
2021/05/01 12:25:46;;;;;;;25.05;19.80;;;10.50;99.90;;;;;;5056984;28;20025;-81
2021/05/01 12:28:13;;;;;;;29.88;23.40;;;10.30;99.90;;;;;;5055651;28;20116;-81
2021/05/01 12:30:39;;;;;;;28.02;19.77;;;10.20;99.90;;;;;;5055361;28;20053;-81
2021/05/01 12:33:27;;;;;;;27.27;20.35;;;10.20;99.90;;;;;;5055530;28;20029;-81
2021/05/01 12:36:02;;;;;;;30.10;22.35;;;10.30;99.90;;;;;;5055510;28;20029;-82
2021/05/01 12:38:29;;;;;;;25.30;19.88;;;10.40;99.90;;;;;;5055432;28;20082;-81
2021/05/01 12:41:08;;;;;;;32.13;22.38;;;10.60;99.90;;;;;;5055372;28;20074;-81